sensor_id;sensor_type;location;lat;lon;timestamp;temperature;humidity
56162;DHT22;42045;52.986;6.014;2022-10-13T08:50:30;12.40;99.90
56162;DHT22;42045;52.986;6.014;2022-10-13T08:53:00;12.50;99.90
56162;DHT22;42045;52.986;6.014;2022-10-13T08:55:32;12.50;99.90
56162;DHT22;42045;52.986;6.014;2022-10-13T08:58:01;12.50;99.90
56162;DHT22;42045;52.986;6.014;2022-10-13T09:03:27;12.50;99.90
56162;DHT22;42045;52.986;6.014;2022-10-13T09:08:38;12.60;99.90
56162;DHT22;42045;52.986;6.014;2022-10-13T09:11:05;12.60;99.90
56162;DHT22;42045;52.986;6.014;2022-10-13T09:13:31;12.60;99.90
56162;DHT22;42045;52.986;6.014;2022-10-13T09:15:57;12.70;99.90
56162;DHT22;42045;52.986;6.014;2022-10-13T09:21:24;12.80;99.90
56162;DHT22;42045;52.986;6.014;2022-10-13T09:23:51;12.80;99.90
56162;DHT22;42045;52.986;6.014;2022-10-13T09:26:21;12.90;99.90
56162;DHT22;42045;52.986;6.014;2022-10-13T09:28:48;12.90;99.90
56162;DHT22;42045;52.986;6.014;2022-10-13T09:31:22;13.00;99.90
56162;DHT22;42045;52.986;6.014;2022-10-13T09:34:00;13.00;99.90
56162;DHT22;42045;52.986;6.014;2022-10-13T09:36:26;13.10;99.90
56162;DHT22;42045;52.986;6.014;2022-10-13T09:39:13;13.10;99.90
56162;DHT22;42045;52.986;6.014;2022-10-13T09:41:40;13.20;99.90
56162;DHT22;42045;52.986;6.014;2022-10-13T09:44:16;13.30;99.90
56162;DHT22;42045;52.986;6.014;2022-10-13T09:49:24;13.20;99.90
56162;DHT22;42045;52.986;6.014;2022-10-13T09:52:19;13.20;99.90
56162;DHT22;42045;52.986;6.014;2022-10-13T09:54:53;13.10;99.90
56162;DHT22;42045;52.986;6.014;2022-10-13T09:57:44;13.10;99.90
56162;DHT22;42045;52.986;6.014;2022-10-13T10:00:18;13.00;99.90
56162;DHT22;42045;52.986;6.014;2022-10-13T10:05:32;12.90;99.90
56162;DHT22;42045;52.986;6.014;2022-10-13T10:11:14;12.80;99.90
56162;DHT22;42045;52.986;6.014;2022-10-13T10:13:41;12.90;99.90
56162;DHT22;42045;52.986;6.014;2022-10-13T10:16:11;12.90;99.90
56162;DHT22;42045;52.986;6.014;2022-10-13T10:18:54;12.90;99.90
56162;DHT22;42045;52.986;6.014;2022-10-13T10:27:25;13.00;99.90
56162;DHT22;42045;52.986;6.014;2022-10-13T10:30:20;13.00;99.90
56162;DHT22;42045;52.986;6.014;2022-10-13T10:38:43;13.20;99.90
56162;DHT22;42045;52.986;6.014;2022-10-13T10:44:04;13.40;99.90
56162;DHT22;42045;52.986;6.014;2022-10-13T10:46:35;13.50;99.90
56162;DHT22;42045;52.986;6.014;2022-10-13T10:49:17;13.60;99.90
56162;DHT22;42045;52.986;6.014;2022-10-13T10:51:44;13.70;99.90
56162;DHT22;42045;52.986;6.014;2022-10-13T10:57:50;13.80;99.90
56162;DHT22;42045;52.986;6.014;2022-10-13T11:00:19;13.90;99.90
56162;DHT22;42045;52.986;6.014;2022-10-13T11:03:03;14.00;99.90
56162;DHT22;42045;52.986;6.014;2022-10-13T11:08:43;14.20;99.90
56162;DHT22;42045;52.986;6.014;2022-10-13T11:19:28;14.30;99.90
56162;DHT22;42045;52.986;6.014;2022-10-13T11:40:33;14.50;99.90
56162;DHT22;42045;52.986;6.014;2022-10-13T11:54:22;14.20;99.90
56162;DHT22;42045;52.986;6.014;2022-10-13T11:56:54;14.10;99.90
56162;DHT22;42045;52.986;6.014;2022-10-13T12:04:38;14.20;99.90
56162;DHT22;42045;52.986;6.014;2022-10-13T12:07:07;14.20;99.90
56162;DHT22;42045;52.986;6.014;2022-10-13T12:09:37;14.20;99.90
56162;DHT22;42045;52.986;6.014;2022-10-13T12:12:13;14.20;99.90
56162;DHT22;42045;52.986;6.014;2022-10-13T12:14:42;14.20;99.90
56162;DHT22;42045;52.986;6.014;2022-10-13T12:17:29;14.20;99.90
56162;DHT22;42045;52.986;6.014;2022-10-13T12:19:58;14.20;99.90
56162;DHT22;42045;52.986;6.014;2022-10-13T12:22:24;14.20;99.90
56162;DHT22;42045;52.986;6.014;2022-10-13T12:25:01;14.20;99.90
56162;DHT22;42045;52.986;6.014;2022-10-13T12:27:29;14.20;99.90
56162;DHT22;42045;52.986;6.014;2022-10-13T12:29:58;14.20;99.90
56162;DHT22;42045;52.986;6.014;2022-10-13T12:32:30;14.20;99.90
56162;DHT22;42045;52.986;6.014;2022-10-13T12:35:09;14.20;99.90
56162;DHT22;42045;52.986;6.014;2022-10-13T12:37:35;14.10;99.90
56162;DHT22;42045;52.986;6.014;2022-10-13T12:40:02;14.10;99.90
56162;DHT22;42045;52.986;6.014;2022-10-13T12:42:34;14.10;99.90
56162;DHT22;42045;52.986;6.014;2022-10-13T12:45:00;14.00;99.90
56162;DHT22;42045;52.986;6.014;2022-10-13T12:53:00;14.10;99.90
56162;DHT22;42045;52.986;6.014;2022-10-13T12:55:27;14.10;99.90
56162;DHT22;42045;52.986;6.014;2022-10-13T12:57:53;14.10;99.90
56162;DHT22;42045;52.986;6.014;2022-10-13T13:03:04;14.20;99.90
56162;DHT22;42045;52.986;6.014;2022-10-13T13:05:39;14.30;99.90
56162;DHT22;42045;52.986;6.014;2022-10-13T13:08:27;14.30;99.90
56162;DHT22;42045;52.986;6.014;2022-10-13T13:11:23;14.40;99.90
56162;DHT22;42045;52.986;6.014;2022-10-13T13:14:20;14.50;99.90
56162;DHT22;42045;52.986;6.014;2022-10-13T13:17:13;14.60;99.90
56162;DHT22;42045;52.986;6.014;2022-10-13T13:19:47;14.60;99.90
56162;DHT22;42045;52.986;6.014;2022-10-13T13:22:13;14.60;99.90
56162;DHT22;42045;52.986;6.014;2022-10-13T13:24:39;14.70;99.90
56162;DHT22;42045;52.986;6.014;2022-10-13T13:27:27;14.70;99.90
56162;DHT22;42045;52.986;6.014;2022-10-13T13:29:56;14.60;99.90
56162;DHT22;42045;52.986;6.014;2022-10-13T13:32:24;14.50;99.90
56162;DHT22;42045;52.986;6.014;2022-10-13T13:34:51;14.60;99.90
56162;DHT22;42045;52.986;6.014;2022-10-13T13:37:29;14.50;99.90
56162;DHT22;42045;52.986;6.014;2022-10-13T13:39:56;14.50;99.90
56162;DHT22;42045;52.986;6.014;2022-10-13T13:42:22;14.40;99.90
56162;DHT22;42045;52.986;6.014;2022-10-13T13:44:47;14.40;99.90
56162;DHT22;42045;52.986;6.014;2022-10-13T13:47:15;14.40;99.90
56162;DHT22;42045;52.986;6.014;2022-10-13T13:49:42;14.30;99.90
56162;DHT22;42045;52.986;6.014;2022-10-13T13:52:07;14.30;99.90
56162;DHT22;42045;52.986;6.014;2022-10-13T13:54:33;14.30;99.90
56162;DHT22;42045;52.986;6.014;2022-10-13T13:56:58;14.30;99.90
56162;DHT22;42045;52.986;6.014;2022-10-13T13:59:24;14.20;99.90
56162;DHT22;42045;52.986;6.014;2022-10-13T14:01:50;14.30;99.90
56162;DHT22;42045;52.986;6.014;2022-10-13T14:04:15;14.20;99.90
56162;DHT22;42045;52.986;6.014;2022-10-13T14:06:41;14.20;99.90
56162;DHT22;42045;52.986;6.014;2022-10-13T14:09:06;14.20;99.90
56162;DHT22;42045;52.986;6.014;2022-10-13T14:11:32;14.20;99.90
56162;DHT22;42045;52.986;6.014;2022-10-13T14:13:58;14.20;99.90
56162;DHT22;42045;52.986;6.014;2022-10-13T14:16:26;14.10;99.90
56162;DHT22;42045;52.986;6.014;2022-10-13T14:18:52;14.10;99.90
56162;DHT22;42045;52.986;6.014;2022-10-13T14:21:19;14.10;99.90
56162;DHT22;42045;52.986;6.014;2022-10-13T14:23:45;14.10;99.90
56162;DHT22;42045;52.986;6.014;2022-10-13T14:26:12;14.00;99.90
56162;DHT22;42045;52.986;6.014;2022-10-13T14:28:42;14.10;99.90
56162;DHT22;42045;52.986;6.014;2022-10-13T14:31:08;14.10;99.90
56162;DHT22;42045;52.986;6.014;2022-10-13T14:33:34;14.10;99.90
56162;DHT22;42045;52.986;6.014;2022-10-13T14:36:01;14.00;99.90
56162;DHT22;42045;52.986;6.014;2022-10-13T14:38:27;14.00;99.90
56162;DHT22;42045;52.986;6.014;2022-10-13T14:40:57;14.00;99.90
56162;DHT22;42045;52.986;6.014;2022-10-13T14:43:23;13.90;99.90
56162;DHT22;42045;52.986;6.014;2022-10-13T14:45:49;14.00;99.90
56162;DHT22;42045;52.986;6.014;2022-10-13T14:48:14;13.90;99.90
56162;DHT22;42045;52.986;6.014;2022-10-13T14:50:40;13.90;99.90
56162;DHT22;42045;52.986;6.014;2022-10-13T14:53:06;13.90;99.90
56162;DHT22;42045;52.986;6.014;2022-10-13T14:55:34;13.90;99.90
56162;DHT22;42045;52.986;6.014;2022-10-13T14:57:59;13.90;99.90
56162;DHT22;42045;52.986;6.014;2022-10-13T15:00:25;13.80;99.90
56162;DHT22;42045;52.986;6.014;2022-10-13T15:02:51;13.90;99.90
56162;DHT22;42045;52.986;6.014;2022-10-13T15:05:16;13.80;99.90
56162;DHT22;42045;52.986;6.014;2022-10-13T15:07:43;13.90;99.90
56162;DHT22;42045;52.986;6.014;2022-10-13T15:10:09;13.80;99.90
56162;DHT22;42045;52.986;6.014;2022-10-13T15:12:34;13.80;99.90
56162;DHT22;42045;52.986;6.014;2022-10-13T15:15:00;13.70;99.90
56162;DHT22;42045;52.986;6.014;2022-10-13T15:17:26;13.70;99.90
56162;DHT22;42045;52.986;6.014;2022-10-13T15:19:52;13.70;99.90
56162;DHT22;42045;52.986;6.014;2022-10-13T15:22:18;13.70;99.90
56162;DHT22;42045;52.986;6.014;2022-10-13T15:24:44;13.70;99.90
56162;DHT22;42045;52.986;6.014;2022-10-13T15:27:10;13.70;99.90
56162;DHT22;42045;52.986;6.014;2022-10-13T15:29:35;13.70;99.90
56162;DHT22;42045;52.986;6.014;2022-10-13T15:32:09;13.60;99.90
56162;DHT22;42045;52.986;6.014;2022-10-13T15:34:37;13.70;99.90
56162;DHT22;42045;52.986;6.014;2022-10-13T15:37:04;13.60;99.90
56162;DHT22;42045;52.986;6.014;2022-10-13T15:39:29;13.60;99.90
56162;DHT22;42045;52.986;6.014;2022-10-13T15:41:55;13.50;99.90
56162;DHT22;42045;52.986;6.014;2022-10-13T15:44:23;13.50;99.90
56162;DHT22;42045;52.986;6.014;2022-10-13T15:46:50;13.50;99.90
56162;DHT22;42045;52.986;6.014;2022-10-13T15:49:15;13.50;99.90
56162;DHT22;42045;52.986;6.014;2022-10-13T15:51:41;13.50;99.90
56162;DHT22;42045;52.986;6.014;2022-10-13T15:54:07;13.50;99.90
56162;DHT22;42045;52.986;6.014;2022-10-13T15:56:32;13.50;99.90
56162;DHT22;42045;52.986;6.014;2022-10-13T15:58:58;13.50;99.90
56162;DHT22;42045;52.986;6.014;2022-10-13T16:01:24;13.40;99.90
56162;DHT22;42045;52.986;6.014;2022-10-13T16:03:52;13.40;99.90
56162;DHT22;42045;52.986;6.014;2022-10-13T16:06:19;13.40;99.90
56162;DHT22;42045;52.986;6.014;2022-10-13T16:08:47;13.40;99.90
56162;DHT22;42045;52.986;6.014;2022-10-13T16:11:15;13.40;99.90
56162;DHT22;42045;52.986;6.014;2022-10-13T16:13:45;13.40;99.90
56162;DHT22;42045;52.986;6.014;2022-10-13T16:16:10;13.40;99.90
56162;DHT22;42045;52.986;6.014;2022-10-13T16:18:38;13.40;99.90
56162;DHT22;42045;52.986;6.014;2022-10-13T16:23:34;13.30;99.90
56162;DHT22;42045;52.986;6.014;2022-10-13T16:26:01;13.30;99.90
56162;DHT22;42045;52.986;6.014;2022-10-13T16:28:27;13.20;99.90
56162;DHT22;42045;52.986;6.014;2022-10-13T16:30:52;13.20;99.90
56162;DHT22;42045;52.986;6.014;2022-10-13T16:33:18;13.10;99.90
56162;DHT22;42045;52.986;6.014;2022-10-13T16:35:43;13.00;99.90
56162;DHT22;42045;52.986;6.014;2022-10-13T16:38:09;12.90;99.90
56162;DHT22;42045;52.986;6.014;2022-10-13T16:40:38;12.90;99.90
56162;DHT22;42045;52.986;6.014;2022-10-13T16:43:07;12.80;99.90
56162;DHT22;42045;52.986;6.014;2022-10-13T16:45:32;12.70;99.90
56162;DHT22;42045;52.986;6.014;2022-10-13T16:47:58;12.60;99.90
56162;DHT22;42045;52.986;6.014;2022-10-13T16:50:24;12.60;99.90
56162;DHT22;42045;52.986;6.014;2022-10-13T16:52:49;12.50;99.90
56162;DHT22;42045;52.986;6.014;2022-10-13T16:55:15;12.50;99.90
56162;DHT22;42045;52.986;6.014;2022-10-13T16:57:41;12.50;99.90
56162;DHT22;42045;52.986;6.014;2022-10-13T17:00:09;12.40;99.90
56162;DHT22;42045;52.986;6.014;2022-10-13T17:02:35;12.40;99.90
56162;DHT22;42045;52.986;6.014;2022-10-13T17:05:00;12.30;99.90
56162;DHT22;42045;52.986;6.014;2022-10-13T17:07:26;12.30;99.90
56162;DHT22;42045;52.986;6.014;2022-10-13T17:09:51;12.30;99.90
56162;DHT22;42045;52.986;6.014;2022-10-13T17:12:17;12.30;99.90
56162;DHT22;42045;52.986;6.014;2022-10-13T17:14:43;12.30;99.90
56162;DHT22;42045;52.986;6.014;2022-10-13T17:17:09;12.20;99.90
56162;DHT22;42045;52.986;6.014;2022-10-13T17:19:34;12.20;99.90
56162;DHT22;42045;52.986;6.014;2022-10-13T17:22:00;12.10;99.90
56162;DHT22;42045;52.986;6.014;2022-10-13T17:24:25;12.10;99.90
56162;DHT22;42045;52.986;6.014;2022-10-13T17:26:51;12.10;99.90
56162;DHT22;42045;52.986;6.014;2022-10-13T17:29:17;12.00;99.90
56162;DHT22;42045;52.986;6.014;2022-10-13T17:31:43;12.00;99.90
56162;DHT22;42045;52.986;6.014;2022-10-13T17:34:08;12.00;99.90
56162;DHT22;42045;52.986;6.014;2022-10-13T17:36:34;12.00;99.90
56162;DHT22;42045;52.986;6.014;2022-10-13T17:39:05;12.00;99.90
56162;DHT22;42045;52.986;6.014;2022-10-13T17:41:31;12.00;99.90
56162;DHT22;42045;52.986;6.014;2022-10-13T17:43:57;12.00;99.90
56162;DHT22;42045;52.986;6.014;2022-10-13T17:46:25;12.00;99.90
56162;DHT22;42045;52.986;6.014;2022-10-13T17:48:51;12.00;99.90
56162;DHT22;42045;52.986;6.014;2022-10-13T17:51:18;12.00;99.90
56162;DHT22;42045;52.986;6.014;2022-10-13T17:53:47;12.00;99.90
56162;DHT22;42045;52.986;6.014;2022-10-13T17:56:15;12.00;99.90
56162;DHT22;42045;52.986;6.014;2022-10-13T17:58:42;12.00;99.90
56162;DHT22;42045;52.986;6.014;2022-10-13T18:01:30;12.10;99.90
56162;DHT22;42045;52.986;6.014;2022-10-13T18:03:57;12.10;99.90
56162;DHT22;42045;52.986;6.014;2022-10-13T18:06:23;12.10;99.90
56162;DHT22;42045;52.986;6.014;2022-10-13T18:08:49;12.10;99.90
56162;DHT22;42045;52.986;6.014;2022-10-13T18:11:17;12.10;99.90
56162;DHT22;42045;52.986;6.014;2022-10-13T18:13:43;12.20;99.90
56162;DHT22;42045;52.986;6.014;2022-10-13T18:16:17;12.20;99.90
56162;DHT22;42045;52.986;6.014;2022-10-13T18:18:44;12.10;99.90
56162;DHT22;42045;52.986;6.014;2022-10-13T18:21:14;12.20;99.90
56162;DHT22;42045;52.986;6.014;2022-10-13T18:23:40;12.20;99.90
56162;DHT22;42045;52.986;6.014;2022-10-13T18:26:10;12.20;99.90
56162;DHT22;42045;52.986;6.014;2022-10-13T18:28:37;12.20;99.90
56162;DHT22;42045;52.986;6.014;2022-10-13T18:31:22;12.20;99.90
56162;DHT22;42045;52.986;6.014;2022-10-13T18:33:48;12.20;99.90
56162;DHT22;42045;52.986;6.014;2022-10-13T18:38:51;12.20;99.90
56162;DHT22;42045;52.986;6.014;2022-10-13T18:41:18;12.30;99.90
56162;DHT22;42045;52.986;6.014;2022-10-13T18:43:44;12.20;99.90
56162;DHT22;42045;52.986;6.014;2022-10-13T18:46:10;12.30;99.90
56162;DHT22;42045;52.986;6.014;2022-10-13T18:48:36;12.20;99.90
56162;DHT22;42045;52.986;6.014;2022-10-13T18:51:05;12.20;99.90
56162;DHT22;42045;52.986;6.014;2022-10-13T18:53:34;12.20;99.90
56162;DHT22;42045;52.986;6.014;2022-10-13T18:56:06;12.20;99.90
56162;DHT22;42045;52.986;6.014;2022-10-13T18:58:33;12.20;99.90
56162;DHT22;42045;52.986;6.014;2022-10-13T19:01:04;12.10;99.90
56162;DHT22;42045;52.986;6.014;2022-10-13T19:03:32;12.20;99.90
56162;DHT22;42045;52.986;6.014;2022-10-13T19:05:58;12.10;99.90
56162;DHT22;42045;52.986;6.014;2022-10-13T19:08:24;12.20;99.90
56162;DHT22;42045;52.986;6.014;2022-10-13T19:10:50;12.10;99.90
56162;DHT22;42045;52.986;6.014;2022-10-13T19:13:16;12.10;99.90
56162;DHT22;42045;52.986;6.014;2022-10-13T19:15:41;12.10;99.90
56162;DHT22;42045;52.986;6.014;2022-10-13T19:18:07;12.10;99.90
56162;DHT22;42045;52.986;6.014;2022-10-13T19:20:33;12.10;99.90
56162;DHT22;42045;52.986;6.014;2022-10-13T19:22:59;12.10;99.90
56162;DHT22;42045;52.986;6.014;2022-10-13T19:25:24;12.10;99.90
56162;DHT22;42045;52.986;6.014;2022-10-13T19:27:51;12.10;99.90
56162;DHT22;42045;52.986;6.014;2022-10-13T19:30:17;12.10;99.90
56162;DHT22;42045;52.986;6.014;2022-10-13T19:32:43;12.00;99.90
56162;DHT22;42045;52.986;6.014;2022-10-13T19:35:09;12.00;99.90
56162;DHT22;42045;52.986;6.014;2022-10-13T19:37:36;12.00;99.90
56162;DHT22;42045;52.986;6.014;2022-10-13T19:40:03;12.00;99.90
56162;DHT22;42045;52.986;6.014;2022-10-13T19:42:29;12.00;99.90
56162;DHT22;42045;52.986;6.014;2022-10-13T19:44:54;12.00;99.90
56162;DHT22;42045;52.986;6.014;2022-10-13T19:47:20;11.90;99.90
56162;DHT22;42045;52.986;6.014;2022-10-13T19:49:46;11.90;99.90
56162;DHT22;42045;52.986;6.014;2022-10-13T19:52:11;11.90;99.90
56162;DHT22;42045;52.986;6.014;2022-10-13T19:54:37;12.00;99.90
56162;DHT22;42045;52.986;6.014;2022-10-13T19:57:03;11.90;99.90
56162;DHT22;42045;52.986;6.014;2022-10-13T19:59:29;11.90;99.90
56162;DHT22;42045;52.986;6.014;2022-10-13T20:01:54;11.90;99.90
56162;DHT22;42045;52.986;6.014;2022-10-13T20:04:21;11.90;99.90
56162;DHT22;42045;52.986;6.014;2022-10-13T20:06:50;11.90;99.90
56162;DHT22;42045;52.986;6.014;2022-10-13T20:09:16;11.90;99.90
56162;DHT22;42045;52.986;6.014;2022-10-13T20:11:44;11.90;99.90
56162;DHT22;42045;52.986;6.014;2022-10-13T20:14:11;12.00;99.90
56162;DHT22;42045;52.986;6.014;2022-10-13T20:16:37;12.00;99.90
56162;DHT22;42045;52.986;6.014;2022-10-13T20:19:03;12.00;99.90
56162;DHT22;42045;52.986;6.014;2022-10-13T20:21:29;12.00;99.90
56162;DHT22;42045;52.986;6.014;2022-10-13T20:23:56;12.00;99.90
56162;DHT22;42045;52.986;6.014;2022-10-13T20:26:22;12.00;99.90
56162;DHT22;42045;52.986;6.014;2022-10-13T20:28:49;12.00;99.90
56162;DHT22;42045;52.986;6.014;2022-10-13T20:31:16;12.00;99.90
56162;DHT22;42045;52.986;6.014;2022-10-13T20:33:42;12.10;99.90
56162;DHT22;42045;52.986;6.014;2022-10-13T20:36:11;12.10;99.90
56162;DHT22;42045;52.986;6.014;2022-10-13T20:38:38;12.10;99.90
56162;DHT22;42045;52.986;6.014;2022-10-13T20:43:30;12.10;99.90
56162;DHT22;42045;52.986;6.014;2022-10-13T20:46:00;12.10;99.90
56162;DHT22;42045;52.986;6.014;2022-10-13T20:48:28;12.10;99.90
56162;DHT22;42045;52.986;6.014;2022-10-13T20:50:59;12.10;99.90
56162;DHT22;42045;52.986;6.014;2022-10-13T20:53:24;12.10;99.90
56162;DHT22;42045;52.986;6.014;2022-10-13T20:55:57;12.10;99.90
56162;DHT22;42045;52.986;6.014;2022-10-13T20:58:24;12.10;99.90
56162;DHT22;42045;52.986;6.014;2022-10-13T21:00:50;12.10;99.90
56162;DHT22;42045;52.986;6.014;2022-10-13T21:03:15;12.10;99.90
56162;DHT22;42045;52.986;6.014;2022-10-13T21:05:44;12.10;99.90
56162;DHT22;42045;52.986;6.014;2022-10-13T21:08:09;12.10;99.90
56162;DHT22;42045;52.986;6.014;2022-10-13T21:10:35;12.10;99.90
56162;DHT22;42045;52.986;6.014;2022-10-13T21:13:01;12.10;99.90
56162;DHT22;42045;52.986;6.014;2022-10-13T21:15:27;12.10;99.90
56162;DHT22;42045;52.986;6.014;2022-10-13T21:17:52;12.10;99.90
56162;DHT22;42045;52.986;6.014;2022-10-13T21:20:18;12.00;99.90
56162;DHT22;42045;52.986;6.014;2022-10-13T21:22:44;12.00;99.90
56162;DHT22;42045;52.986;6.014;2022-10-13T21:25:10;12.00;99.90
56162;DHT22;42045;52.986;6.014;2022-10-13T21:27:35;12.00;99.90
56162;DHT22;42045;52.986;6.014;2022-10-13T21:30:03;12.00;99.90
56162;DHT22;42045;52.986;6.014;2022-10-13T21:32:29;11.90;99.90
56162;DHT22;42045;52.986;6.014;2022-10-13T21:34:55;11.90;99.90
56162;DHT22;42045;52.986;6.014;2022-10-13T21:37:21;12.00;99.90
56162;DHT22;42045;52.986;6.014;2022-10-13T21:39:47;11.90;99.90
56162;DHT22;42045;52.986;6.014;2022-10-13T21:42:14;11.90;99.90
56162;DHT22;42045;52.986;6.014;2022-10-13T21:44:40;11.90;99.90
56162;DHT22;42045;52.986;6.014;2022-10-13T21:47:05;11.90;99.90
56162;DHT22;42045;52.986;6.014;2022-10-13T21:49:31;11.80;99.90
56162;DHT22;42045;52.986;6.014;2022-10-13T21:51:57;11.80;99.90
56162;DHT22;42045;52.986;6.014;2022-10-13T21:54:23;11.80;99.90
56162;DHT22;42045;52.986;6.014;2022-10-13T21:56:48;11.70;99.90
56162;DHT22;42045;52.986;6.014;2022-10-13T21:59:14;11.70;99.90
56162;DHT22;42045;52.986;6.014;2022-10-13T22:01:40;11.70;99.90
56162;DHT22;42045;52.986;6.014;2022-10-13T22:04:07;11.70;99.90
56162;DHT22;42045;52.986;6.014;2022-10-13T22:06:33;11.60;99.90
56162;DHT22;42045;52.986;6.014;2022-10-13T22:09:01;11.60;99.90
56162;DHT22;42045;52.986;6.014;2022-10-13T22:11:30;11.60;99.90
56162;DHT22;42045;52.986;6.014;2022-10-13T22:13:56;11.60;99.90
56162;DHT22;42045;52.986;6.014;2022-10-13T22:16:27;11.60;99.90
56162;DHT22;42045;52.986;6.014;2022-10-13T22:18:55;11.60;99.90
56162;DHT22;42045;52.986;6.014;2022-10-13T22:21:24;11.50;99.90
56162;DHT22;42045;52.986;6.014;2022-10-13T22:23:50;11.60;99.90
56162;DHT22;42045;52.986;6.014;2022-10-13T22:26:17;11.60;99.90
56162;DHT22;42045;52.986;6.014;2022-10-13T22:28:43;11.60;99.90
56162;DHT22;42045;52.986;6.014;2022-10-13T22:31:12;11.50;99.90
56162;DHT22;42045;52.986;6.014;2022-10-13T22:33:39;11.50;99.90
56162;DHT22;42045;52.986;6.014;2022-10-13T22:36:11;11.40;99.90
56162;DHT22;42045;52.986;6.014;2022-10-13T22:38:37;11.40;99.90
56162;DHT22;42045;52.986;6.014;2022-10-13T22:41:04;11.30;99.90
56162;DHT22;42045;52.986;6.014;2022-10-13T22:43:30;11.30;99.90
56162;DHT22;42045;52.986;6.014;2022-10-13T22:45:56;11.20;99.90
56162;DHT22;42045;52.986;6.014;2022-10-13T22:48:22;11.10;99.90
56162;DHT22;42045;52.986;6.014;2022-10-13T22:50:47;11.10;99.90
56162;DHT22;42045;52.986;6.014;2022-10-13T22:53:13;11.00;99.90
56162;DHT22;42045;52.986;6.014;2022-10-13T22:55:39;10.90;99.90
56162;DHT22;42045;52.986;6.014;2022-10-13T22:58:05;10.90;99.90
56162;DHT22;42045;52.986;6.014;2022-10-13T23:00:33;10.80;99.90
56162;DHT22;42045;52.986;6.014;2022-10-13T23:02:59;10.70;99.90
56162;DHT22;42045;52.986;6.014;2022-10-13T23:05:24;10.60;99.90
56162;DHT22;42045;52.986;6.014;2022-10-13T23:07:50;10.60;99.90
56162;DHT22;42045;52.986;6.014;2022-10-13T23:10:16;10.40;99.90
56162;DHT22;42045;52.986;6.014;2022-10-13T23:12:41;10.40;99.90
56162;DHT22;42045;52.986;6.014;2022-10-13T23:15:08;10.30;99.90
56162;DHT22;42045;52.986;6.014;2022-10-13T23:17:33;10.20;99.90
56162;DHT22;42045;52.986;6.014;2022-10-13T23:19:59;10.20;99.90
56162;DHT22;42045;52.986;6.014;2022-10-13T23:22:24;10.20;99.90
56162;DHT22;42045;52.986;6.014;2022-10-13T23:24:50;10.10;99.90
56162;DHT22;42045;52.986;6.014;2022-10-13T23:27:16;10.10;99.90
56162;DHT22;42045;52.986;6.014;2022-10-13T23:29:41;10.10;99.90
56162;DHT22;42045;52.986;6.014;2022-10-13T23:32:07;10.10;99.90
56162;DHT22;42045;52.986;6.014;2022-10-13T23:34:32;10.00;99.90
56162;DHT22;42045;52.986;6.014;2022-10-13T23:36:58;9.90;99.90
56162;DHT22;42045;52.986;6.014;2022-10-13T23:39:24;9.90;99.90
56162;DHT22;42045;52.986;6.014;2022-10-13T23:41:49;9.90;99.90
56162;DHT22;42045;52.986;6.014;2022-10-13T23:44:15;9.90;99.90
56162;DHT22;42045;52.986;6.014;2022-10-13T23:46:41;9.90;99.90
56162;DHT22;42045;52.986;6.014;2022-10-13T23:49:10;9.90;99.90
56162;DHT22;42045;52.986;6.014;2022-10-13T23:51:35;9.80;99.90
56162;DHT22;42045;52.986;6.014;2022-10-13T23:54:01;9.80;99.90
56162;DHT22;42045;52.986;6.014;2022-10-13T23:56:27;9.70;99.90
56162;DHT22;42045;52.986;6.014;2022-10-13T23:58:52;9.70;99.90
